createdAt,value
2022-09-27T00:00:46.691Z,2.63
2022-09-27T00:03:13.880Z,2.78
2022-09-27T00:05:40.914Z,2.83
2022-09-27T00:08:08.139Z,2.85
2022-09-27T00:10:35.163Z,3.28
2022-09-27T00:13:02.241Z,2.88
2022-09-27T00:15:29.183Z,3.53
2022-09-27T00:17:56.120Z,3.20
2022-09-27T00:20:23.070Z,3.13
2022-09-27T00:22:50.519Z,3.95
2022-09-27T00:25:18.377Z,3.85
2022-09-27T00:27:45.426Z,3.70
2022-09-27T00:30:13.529Z,3.90
2022-09-27T00:32:40.487Z,5.15
2022-09-27T00:35:08.499Z,4.15
2022-09-27T00:37:35.673Z,3.83
2022-09-27T00:40:02.694Z,4.15
2022-09-27T00:42:30.114Z,3.90
2022-09-27T00:45:07.872Z,3.65
2022-09-27T00:48:05.561Z,3.80
2022-09-27T00:50:43.862Z,3.80
2022-09-27T00:53:27.340Z,3.85
2022-09-27T00:56:05.258Z,4.32
2022-09-27T00:58:37.479Z,4.15
2022-09-27T01:01:07.821Z,3.72
2022-09-27T01:03:42.784Z,4.22
2022-09-27T01:06:11.033Z,4.38
2022-09-27T01:08:38.148Z,3.85
2022-09-27T01:11:14.903Z,3.97
2022-09-27T01:14:17.578Z,4.07
2022-09-27T01:16:58.373Z,4.30
2022-09-27T01:19:47.032Z,3.83
2022-09-27T01:22:45.758Z,4.38
2022-09-27T01:25:15.705Z,5.03
2022-09-27T01:28:16.191Z,3.70
2022-09-27T01:30:55.264Z,3.97
2022-09-27T01:33:44.476Z,4.00
2022-09-27T01:36:31.639Z,4.05
2022-09-27T01:39:08.810Z,4.18
2022-09-27T01:42:01.920Z,3.53
2022-09-27T01:45:02.759Z,4.13
2022-09-27T01:47:49.804Z,3.30
2022-09-27T01:50:52.764Z,3.10
2022-09-27T01:53:25.581Z,4.35
2022-09-27T01:56:33.541Z,5.07
2022-09-27T01:59:20.188Z,4.63
2022-09-27T02:01:59.721Z,4.03
2022-09-27T02:04:36.052Z,3.80
2022-09-27T02:07:23.704Z,4.30
2022-09-27T02:09:59.337Z,4.47
2022-09-27T02:12:42.755Z,4.40
2022-09-27T02:15:14.886Z,5.13
2022-09-27T02:18:02.973Z,4.80
2022-09-27T02:20:31.864Z,4.93
2022-09-27T02:23:16.795Z,4.70
2022-09-27T02:25:58.603Z,4.95
2022-09-27T02:28:39.866Z,5.00
2022-09-27T02:31:09.290Z,5.32
2022-09-27T02:33:50.892Z,5.55
2022-09-27T02:36:18.218Z,6.20
2022-09-27T02:38:45.673Z,4.30
2022-09-27T02:41:20.108Z,4.82
2022-09-27T02:43:51.771Z,5.57
2022-09-27T02:46:50.353Z,4.95
2022-09-27T02:49:23.647Z,6.25
2022-09-27T02:52:32.613Z,5.43
2022-09-27T02:55:09.299Z,4.97
2022-09-27T02:58:27.681Z,5.25
2022-09-27T03:01:42.467Z,5.35
2022-09-27T03:04:27.975Z,6.78
2022-09-27T03:06:58.223Z,8.00
2022-09-27T03:09:29.614Z,6.90
2022-09-27T03:11:56.750Z,8.55
2022-09-27T03:14:24.069Z,7.65
2022-09-27T03:17:01.209Z,7.53
2022-09-27T03:20:03.920Z,7.90
2022-09-27T03:22:57.236Z,7.00
2022-09-27T03:25:24.351Z,5.38
2022-09-27T03:27:51.341Z,5.32
2022-09-27T03:30:18.975Z,6.30
2022-09-27T03:32:46.337Z,5.75
2022-09-27T03:35:31.760Z,5.80
2022-09-27T03:37:58.989Z,5.80
2022-09-27T03:40:26.132Z,6.68
2022-09-27T03:42:53.472Z,5.00
2022-09-27T03:45:20.651Z,5.15
2022-09-27T03:47:48.191Z,5.93
2022-09-27T03:50:16.432Z,6.90
2022-09-27T03:52:45.176Z,5.18
2022-09-27T03:55:12.968Z,6.50
2022-09-27T03:57:43.957Z,6.25
2022-09-27T04:00:12.005Z,5.82
2022-09-27T04:02:39.032Z,5.72
2022-09-27T04:05:21.112Z,5.80
2022-09-27T04:07:49.551Z,5.50
2022-09-27T04:10:18.255Z,5.93
2022-09-27T04:12:45.667Z,6.85
2022-09-27T04:15:13.037Z,6.25
2022-09-27T04:18:00.393Z,7.40
2022-09-27T04:20:34.120Z,7.05
2022-09-27T04:25:35.350Z,6.15
2022-09-27T04:28:09.426Z,6.00
2022-09-27T04:30:36.473Z,7.32
2022-09-27T04:33:12.796Z,6.95
2022-09-27T04:36:13.482Z,9.38
2022-09-27T04:38:49.462Z,7.45
2022-09-27T04:41:21.893Z,7.57
2022-09-27T04:43:49.930Z,8.70
2022-09-27T04:46:17.270Z,9.35
2022-09-27T04:48:44.797Z,8.07
2022-09-27T04:51:11.992Z,17.98
2022-09-27T04:53:39.840Z,15.75
2022-09-27T04:56:07.307Z,11.32
2022-09-27T04:58:36.008Z,9.52
2022-09-27T05:01:04.959Z,8.05
2022-09-27T05:03:54.633Z,8.05
2022-09-27T05:06:21.575Z,9.07
2022-09-27T05:08:48.569Z,7.93
2022-09-27T05:11:18.348Z,8.52
2022-09-27T05:14:06.024Z,7.97
2022-09-27T05:16:41.767Z,8.07
2022-09-27T05:19:41.409Z,9.10
2022-09-27T05:22:31.778Z,8.07
2022-09-27T05:24:58.908Z,7.47
2022-09-27T05:27:25.948Z,7.82
2022-09-27T05:29:53.300Z,8.40
2022-09-27T05:32:29.765Z,8.00
2022-09-27T05:35:19.293Z,9.10
2022-09-27T05:38:12.624Z,9.23
2022-09-27T05:40:45.048Z,9.57
2022-09-27T05:43:12.429Z,10.40
2022-09-27T05:45:39.776Z,9.77
2022-09-27T05:48:07.623Z,11.82
2022-09-27T05:50:42.999Z,10.10
2022-09-27T05:53:11.449Z,10.80
2022-09-27T05:55:38.455Z,13.70
2022-09-27T05:58:08.551Z,13.15
2022-09-27T06:00:49.305Z,10.32
2022-09-27T06:03:35.902Z,11.60
2022-09-27T06:06:25.847Z,11.35
2022-09-27T06:08:56.628Z,9.15
2022-09-27T06:11:27.699Z,11.20
2022-09-27T06:13:55.107Z,10.48
2022-09-27T06:16:24.050Z,10.73
2022-09-27T06:18:52.342Z,11.63
2022-09-27T06:21:20.699Z,8.65
2022-09-27T06:23:55.760Z,10.45
2022-09-27T06:26:35.112Z,8.38
2022-09-27T06:29:29.322Z,8.85
2022-09-27T06:31:59.674Z,7.63
2022-09-27T06:34:47.671Z,7.38
2022-09-27T06:37:15.474Z,7.43
2022-09-27T06:39:42.726Z,8.45
2022-09-27T06:42:28.474Z,6.35
2022-09-27T06:45:06.562Z,5.78
2022-09-27T06:47:53.134Z,5.75
2022-09-27T06:50:39.650Z,6.30
2022-09-27T06:53:08.533Z,6.07
2022-09-27T06:55:35.597Z,6.68
2022-09-27T06:58:22.101Z,6.30
2022-09-27T07:01:08.134Z,6.93
2022-09-27T07:04:04.407Z,6.70
2022-09-27T07:06:53.688Z,7.03
2022-09-27T07:09:23.529Z,7.60
2022-09-27T07:11:50.565Z,7.35
2022-09-27T07:14:17.668Z,6.88
2022-09-27T07:16:46.327Z,6.00
2022-09-27T07:19:14.565Z,6.45
2022-09-27T07:21:42.933Z,6.63
2022-09-27T07:24:10.288Z,6.22
2022-09-27T07:26:38.531Z,5.25
2022-09-27T07:29:07.684Z,4.70
2022-09-27T07:31:34.946Z,4.60
2022-09-27T07:34:02.095Z,5.00
2022-09-27T07:36:31.176Z,4.97
2022-09-27T07:39:01.928Z,4.50
2022-09-27T07:41:32.055Z,5.25
2022-09-27T07:43:59.751Z,4.65
2022-09-27T07:46:26.997Z,5.47
2022-09-27T07:49:17.060Z,4.90
2022-09-27T07:51:50.788Z,5.35
2022-09-27T07:54:33.790Z,5.03
2022-09-27T07:57:06.556Z,5.15
2022-09-27T07:59:42.286Z,4.55
2022-09-27T08:02:15.608Z,4.18
2022-09-27T08:04:49.310Z,4.65
2022-09-27T08:07:17.013Z,4.82
2022-09-27T08:09:47.095Z,4.90
2022-09-27T08:12:14.166Z,6.53
2022-09-27T08:14:47.321Z,7.07
2022-09-27T08:17:16.531Z,5.50
2022-09-27T08:20:06.376Z,5.60
2022-09-27T08:22:52.135Z,5.80
2022-09-27T08:25:28.537Z,4.90
2022-09-27T08:28:09.953Z,4.35
2022-09-27T08:30:49.957Z,4.68
2022-09-27T08:33:17.738Z,4.82
2022-09-27T08:35:44.902Z,4.72
2022-09-27T08:38:12.806Z,5.72
2022-09-27T08:40:43.317Z,3.90
2022-09-27T08:43:38.131Z,3.90
2022-09-27T08:46:31.094Z,3.10
2022-09-27T08:49:07.203Z,3.88
2022-09-27T08:51:35.955Z,3.10
2022-09-27T08:54:08.650Z,3.30
2022-09-27T08:56:36.527Z,3.83
2022-09-27T08:59:21.983Z,3.30
2022-09-27T09:01:51.355Z,3.20
2022-09-27T09:04:37.884Z,3.33
2022-09-27T09:07:33.420Z,4.05
2022-09-27T09:11:04.329Z,3.90
2022-09-27T09:14:00.129Z,4.05
2022-09-27T09:16:47.450Z,3.80
2022-09-27T09:19:36.164Z,3.15
2022-09-27T09:22:44.375Z,3.10
2022-09-27T09:25:34.757Z,3.60
2022-09-27T09:28:14.011Z,3.05
2022-09-27T09:31:07.798Z,4.13
2022-09-27T09:34:05.741Z,3.42
2022-09-27T09:36:34.802Z,3.30
2022-09-27T09:39:11.245Z,3.35
2022-09-27T09:42:05.316Z,3.78
2022-09-27T09:44:45.563Z,3.60
2022-09-27T09:47:29.944Z,3.30
2022-09-27T09:50:01.380Z,3.03
2022-09-27T09:52:41.522Z,3.10
2022-09-27T09:55:23.067Z,2.80
2022-09-27T09:57:53.378Z,1.55
2022-09-27T10:00:24.215Z,1.13
2022-09-27T10:02:55.545Z,0.85
2022-09-27T10:05:25.335Z,0.85
2022-09-27T10:08:01.449Z,0.85
2022-09-27T10:10:29.664Z,0.60
2022-09-27T10:13:19.826Z,0.50
2022-09-27T10:16:12.907Z,1.15
2022-09-27T10:18:47.566Z,0.47
2022-09-27T10:21:25.665Z,0.63
2022-09-27T10:24:07.451Z,0.50
2022-09-27T10:26:52.174Z,0.65
2022-09-27T10:29:37.216Z,1.60
2022-09-27T10:32:25.503Z,3.85
2022-09-27T10:35:35.339Z,1.10
2022-09-27T10:38:23.922Z,1.20
2022-09-27T10:40:58.800Z,1.17
2022-09-27T10:43:31.361Z,0.95
2022-09-27T10:46:20.839Z,0.77
2022-09-27T10:49:09.163Z,0.80
2022-09-27T10:51:37.008Z,0.80
2022-09-27T10:54:05.200Z,0.60
2022-09-27T10:56:36.104Z,1.10
2022-09-27T10:59:05.401Z,0.90
2022-09-27T11:01:48.624Z,0.90
2022-09-27T11:04:38.113Z,1.10
2022-09-27T11:07:20.202Z,1.30
2022-09-27T11:10:03.458Z,1.60
2022-09-27T11:12:35.754Z,1.40
2022-09-27T11:15:18.683Z,1.20
2022-09-27T11:18:04.785Z,1.30
2022-09-27T11:20:44.712Z,1.17
2022-09-27T11:23:28.057Z,1.30
2022-09-27T11:26:38.727Z,1.60
2022-09-27T11:29:40.347Z,1.70
2022-09-27T11:33:02.337Z,0.93
2022-09-27T11:35:48.240Z,0.85
2022-09-27T11:38:51.572Z,1.20
2022-09-27T11:41:40.343Z,1.20
2022-09-27T11:44:38.307Z,0.98
2022-09-27T11:47:29.575Z,1.00
2022-09-27T11:50:18.780Z,1.13
2022-09-27T11:53:24.597Z,1.23
2022-09-27T11:56:10.244Z,1.17
2022-09-27T11:58:57.495Z,1.42
2022-09-27T12:01:36.547Z,1.60
2022-09-27T12:04:25.512Z,1.40
2022-09-27T12:07:07.902Z,1.60
2022-09-27T12:09:43.521Z,1.27
2022-09-27T12:12:20.857Z,2.33
2022-09-27T12:14:54.914Z,2.08
2022-09-27T12:17:27.657Z,1.60
2022-09-27T12:20:00.102Z,1.88
2022-09-27T12:23:00.942Z,1.58
2022-09-27T12:25:46.941Z,1.77
2022-09-27T12:28:43.370Z,2.00
2022-09-27T12:31:41.208Z,1.70
2022-09-27T12:34:19.852Z,2.40
2022-09-27T12:37:11.171Z,2.33
2022-09-27T12:40:08.050Z,2.28
2022-09-27T12:45:47.058Z,2.00
2022-09-27T12:48:44.368Z,2.10
2022-09-27T12:51:20.027Z,2.20
2022-09-27T12:54:12.602Z,2.78
2022-09-27T12:57:04.368Z,2.22
2022-09-27T13:00:00.692Z,1.80
2022-09-27T13:02:39.257Z,2.00
2022-09-27T13:05:30.433Z,2.60
2022-09-27T13:08:31.691Z,2.20
2022-09-27T13:11:14.234Z,4.07
2022-09-27T13:13:41.659Z,1.70
2022-09-27T13:16:10.861Z,1.75
2022-09-27T13:18:49.286Z,1.70
2022-09-27T13:21:51.539Z,2.15
2022-09-27T13:24:57.064Z,2.10
2022-09-27T13:27:50.502Z,1.85
2022-09-27T13:30:23.489Z,1.60
2022-09-27T13:33:08.930Z,1.95
2022-09-27T13:36:29.654Z,2.08
2022-09-27T13:39:10.325Z,2.28
2022-09-27T13:42:06.071Z,2.58
2022-09-27T13:44:57.757Z,3.25
2022-09-27T13:47:41.063Z,2.17
2022-09-27T13:50:40.051Z,2.60
2022-09-27T13:53:39.897Z,2.67
2022-09-27T13:56:48.310Z,3.10
2022-09-27T13:59:24.535Z,2.70
2022-09-27T14:02:04.876Z,2.53
2022-09-27T14:04:48.404Z,2.40
2022-09-27T14:07:21.293Z,2.58
2022-09-27T14:09:55.219Z,3.17
2022-09-27T14:12:31.400Z,3.65
2022-09-27T14:15:01.498Z,2.92
2022-09-27T14:17:33.188Z,3.20
2022-09-27T14:20:03.741Z,2.78
2022-09-27T14:22:31.088Z,3.00
2022-09-27T14:25:17.887Z,3.05
2022-09-27T14:27:47.761Z,2.83
2022-09-27T14:30:33.523Z,3.92
2022-09-27T14:33:30.587Z,4.00
2022-09-27T14:36:23.863Z,3.28
2022-09-27T14:38:54.146Z,3.08
2022-09-27T14:41:36.973Z,2.72
2022-09-27T14:44:04.221Z,2.53
2022-09-27T14:46:32.439Z,1.90
2022-09-27T14:49:11.353Z,2.88
2022-09-27T14:51:38.657Z,2.53
2022-09-27T14:54:07.904Z,2.80
2022-09-27T14:56:39.856Z,2.58
2022-09-27T14:59:27.021Z,2.42
2022-09-27T15:01:54.688Z,2.92
2022-09-27T15:04:23.995Z,2.42
2022-09-27T15:06:51.797Z,2.10
2022-09-27T15:09:19.547Z,2.20
2022-09-27T15:11:52.907Z,2.20
2022-09-27T15:14:20.864Z,1.77
2022-09-27T15:16:49.858Z,2.30
2022-09-27T15:19:29.180Z,2.38
2022-09-27T15:21:57.474Z,2.17
2022-09-27T15:24:40.926Z,2.30
2022-09-27T15:27:34.378Z,2.65
2022-09-27T15:30:01.693Z,2.17
2022-09-27T15:32:29.384Z,1.90
2022-09-27T15:34:57.443Z,1.92
2022-09-27T15:37:24.443Z,2.13
2022-09-27T15:39:51.399Z,2.10
2022-09-27T15:42:19.728Z,4.93
2022-09-27T15:44:51.077Z,4.00
2022-09-27T15:47:37.622Z,5.63
2022-09-27T15:50:16.674Z,3.75
2022-09-27T15:52:58.164Z,4.20
2022-09-27T15:55:27.793Z,3.30
2022-09-27T15:58:00.248Z,3.22
2022-09-27T16:00:27.426Z,4.32
2022-09-27T16:02:54.500Z,3.78
2022-09-27T16:05:23.904Z,3.10
2022-09-27T16:07:51.668Z,2.88
2022-09-27T16:10:24.341Z,2.38
2022-09-27T16:12:52.211Z,2.45
2022-09-27T16:15:19.272Z,11.25
2022-09-27T16:17:46.401Z,10.38
2022-09-27T16:20:21.646Z,16.30
2022-09-27T16:22:48.908Z,73.07
2022-09-27T16:25:15.938Z,18.83
2022-09-27T16:27:43.208Z,5.85
2022-09-27T16:30:10.924Z,10.13
2022-09-27T16:32:45.853Z,4.05
2022-09-27T16:35:14.927Z,4.38
2022-09-27T16:37:42.537Z,4.03
2022-09-27T16:40:11.728Z,3.50
2022-09-27T16:42:39.454Z,3.25
2022-09-27T16:45:10.564Z,2.95
2022-09-27T16:47:38.946Z,3.17
2022-09-27T16:50:24.715Z,3.45
2022-09-27T16:52:52.581Z,3.55
2022-09-27T16:55:21.120Z,3.75
2022-09-27T16:57:49.000Z,3.60
2022-09-27T17:00:17.486Z,3.22
2022-09-27T17:02:49.384Z,4.30
2022-09-27T17:05:18.214Z,3.17
2022-09-27T17:07:45.163Z,2.90
2022-09-27T17:10:12.109Z,3.25
2022-09-27T17:12:40.571Z,3.67
2022-09-27T17:15:08.005Z,4.95
2022-09-27T17:17:34.988Z,4.05
2022-09-27T17:20:02.033Z,4.30
2022-09-27T17:22:28.972Z,4.38
2022-09-27T17:24:57.273Z,4.85
2022-09-27T17:27:28.356Z,4.03
2022-09-27T17:29:55.898Z,5.53
2022-09-27T17:32:23.229Z,4.18
2022-09-27T17:34:51.273Z,5.05
2022-09-27T17:37:18.356Z,7.15
2022-09-27T17:39:45.444Z,5.20
2022-09-27T17:42:12.751Z,7.35
2022-09-27T17:44:40.156Z,6.97
2022-09-27T17:47:25.584Z,6.68
2022-09-27T17:50:11.269Z,6.50
2022-09-27T17:52:38.286Z,5.25
2022-09-27T17:55:05.762Z,5.53
2022-09-27T17:57:32.739Z,5.18
2022-09-27T18:08:42.023Z,4.65
2022-09-27T18:11:15.032Z,4.82
2022-09-27T18:13:43.446Z,5.25
2022-09-27T18:16:13.361Z,5.38
2022-09-27T18:18:42.577Z,4.32
2022-09-27T18:21:14.406Z,5.20
2022-09-27T18:23:43.515Z,5.10
2022-09-27T18:26:11.589Z,4.40
2022-09-27T18:28:40.772Z,4.00
2022-09-27T18:33:54.854Z,3.13
2022-09-27T18:36:24.982Z,4.00
2022-09-27T18:39:00.307Z,3.45
2022-09-27T18:41:29.905Z,3.22
2022-09-27T18:43:59.585Z,3.65
2022-09-27T18:46:36.726Z,3.55
2022-09-27T18:49:07.034Z,2.47
2022-09-27T18:51:37.920Z,2.60
2022-09-27T18:54:07.715Z,3.28
2022-09-27T18:56:39.773Z,2.50
2022-09-27T18:59:09.292Z,1.88
2022-09-27T19:01:40.126Z,2.00
2022-09-27T19:04:09.337Z,8.03
2022-09-27T19:06:37.774Z,37.47
2022-09-27T19:09:06.350Z,31.08
2022-09-27T19:11:36.773Z,13.93
2022-09-27T19:14:03.906Z,8.32
2022-09-27T19:16:31.874Z,5.30
2022-09-27T19:19:00.139Z,2.03
2022-09-27T19:21:29.881Z,1.70
2022-09-27T19:23:57.760Z,1.92
2022-09-27T19:26:27.294Z,1.58
2022-09-27T19:28:55.281Z,1.20
2022-09-27T19:31:25.595Z,0.80
2022-09-27T19:33:59.706Z,0.70
2022-09-27T19:36:28.182Z,0.80
2022-09-27T19:38:58.722Z,0.60
2022-09-27T19:41:26.831Z,1.40
2022-09-27T19:43:55.230Z,0.75
2022-09-27T19:46:24.026Z,1.20
2022-09-27T19:48:51.853Z,1.23
2022-09-27T19:51:22.347Z,0.90
2022-09-27T19:53:50.297Z,0.70
2022-09-27T19:56:18.182Z,0.55
2022-09-27T19:58:45.626Z,0.50
2022-09-27T20:01:15.959Z,0.75
2022-09-27T20:03:44.287Z,0.45
2022-09-27T20:06:15.162Z,0.55
2022-09-27T20:08:42.874Z,0.77
2022-09-27T20:11:16.876Z,0.70
2022-09-27T20:13:44.732Z,0.68
2022-09-27T20:16:18.152Z,0.80
2022-09-27T20:18:47.894Z,0.63
2022-09-27T20:21:16.116Z,2.38
2022-09-27T20:23:43.980Z,1.35
2022-09-27T20:26:15.859Z,0.70
2022-09-27T20:28:45.003Z,1.15
2022-09-27T20:31:14.911Z,0.57
2022-09-27T20:33:42.503Z,0.70
2022-09-27T20:36:31.829Z,1.02
2022-09-27T20:39:03.748Z,0.90
2022-09-27T20:41:37.155Z,0.90
2022-09-27T20:44:07.091Z,0.60
2022-09-27T20:46:35.099Z,0.65
2022-09-27T20:49:07.405Z,0.60
2022-09-27T20:51:36.960Z,0.57
2022-09-27T20:54:05.125Z,0.40
2022-09-27T20:56:38.110Z,0.50
2022-09-27T20:59:14.620Z,0.77
2022-09-27T21:01:44.739Z,0.43
2022-09-27T21:04:14.638Z,0.50
2022-09-27T21:06:42.066Z,0.30
2022-09-27T21:09:16.961Z,0.30
2022-09-27T21:11:45.455Z,0.40
2022-09-27T21:14:12.497Z,0.40
2022-09-27T21:16:39.634Z,0.70
2022-09-27T21:19:06.729Z,0.50
2022-09-27T21:21:33.984Z,0.40
2022-09-27T21:24:02.088Z,0.50
2022-09-27T21:26:31.658Z,0.30
2022-09-27T21:29:00.793Z,0.50
2022-09-27T21:31:32.567Z,0.32
2022-09-27T21:34:01.998Z,0.38
2022-09-27T21:36:39.002Z,0.50
2022-09-27T21:39:08.760Z,0.57
2022-09-27T21:41:38.882Z,0.50
2022-09-27T21:44:06.624Z,0.60
2022-09-27T21:46:33.965Z,1.00
2022-09-27T21:49:02.188Z,1.42
2022-09-27T21:51:36.631Z,1.10
2022-09-27T21:54:09.587Z,1.10
2022-09-27T21:56:39.554Z,0.80
2022-09-27T21:59:09.428Z,1.13
2022-09-27T22:01:36.921Z,1.02
2022-09-27T22:04:05.707Z,0.98
2022-09-27T22:06:35.074Z,2.50
2022-09-27T22:09:03.219Z,1.05
2022-09-27T22:11:39.267Z,1.35
2022-09-27T22:14:06.959Z,0.80
2022-09-27T22:16:34.117Z,0.70
2022-09-27T22:19:01.919Z,1.90
2022-09-27T22:21:31.521Z,8.98
2022-09-27T22:24:06.522Z,4.85
2022-09-27T22:26:37.213Z,1.67
2022-09-27T22:29:05.448Z,1.15
2022-09-27T22:31:32.921Z,1.17
2022-09-27T22:34:05.533Z,0.90
2022-09-27T22:36:33.745Z,0.90
2022-09-27T22:39:01.049Z,0.73
2022-09-27T22:41:29.962Z,0.70
2022-09-27T22:43:57.505Z,0.50
2022-09-27T22:46:24.458Z,0.50
2022-09-27T22:48:51.500Z,2.15
2022-09-27T22:51:19.148Z,4.50
2022-09-27T22:53:46.108Z,7.45
2022-09-27T22:56:19.026Z,18.17
2022-09-27T22:58:47.687Z,5.15
2022-09-27T23:01:24.905Z,1.52
2022-09-27T23:03:54.938Z,0.70
2022-09-27T23:06:22.865Z,0.70
2022-09-27T23:08:51.325Z,1.30
2022-09-27T23:11:43.804Z,2.10
2022-09-27T23:14:11.384Z,0.98
2022-09-27T23:16:38.581Z,0.98
2022-09-27T23:19:06.873Z,1.38
2022-09-27T23:21:33.920Z,1.55
2022-09-27T23:24:01.611Z,1.00
2022-09-27T23:26:29.172Z,1.02
2022-09-27T23:29:01.361Z,1.23
2022-09-27T23:31:30.675Z,0.88
2022-09-27T23:33:59.315Z,1.00
2022-09-27T23:36:27.633Z,1.20
2022-09-27T23:38:58.853Z,1.20
2022-09-27T23:41:26.222Z,1.10
2022-09-27T23:43:53.935Z,1.33
2022-09-27T23:46:21.417Z,1.25
2022-09-27T23:48:48.760Z,1.30
2022-09-27T23:51:15.864Z,1.38
2022-09-27T23:53:42.974Z,1.52
2022-09-27T23:56:15.260Z,1.50
2022-09-27T23:58:44.246Z,1.25
